• Join FlightAware (Why Join?)
  • Login
  • US Flag 
12:10AM EDT


 

Airport Tracker/Info


-or-


 

Live Flight TrackerFlight Track Log ✈ FSR411 ✈ 29-Nov-2013 ✈ KBED - KABE

Flight Track Log - Related Links

Times and Time Zones

All times are in EST time to prevent confusion due to time zone crossing. See the FSR411 flight status page for this flight to view local times or setup timezone preferences in your user account.

Time Position Orientation Groundspeed Altitude Reporting Facility
EST Latitude Longitude Course Direction KTS MPH feet Rate Location/Type
01:15PM 42.4667 -71.3000 238° Southwest 138 159 900  Level KA90
01:16PM 42.4175 -71.4083 238° Southwest 203 234 5,900 3,300 Climbing Boston Center
01:18PM 42.3825 -71.4708 233° Southwest 209 241 9,900 3,540 Climbing Boston Center
01:19PM 42.3714 -71.5642 261° West 254 292 13,100 3,180 Climbing Boston Center
01:20PM 42.3489 -71.6819 256° West 317 365 16,400 3,360 Climbing Boston Center
01:21PM 42.3281 -71.8031 257° West 332 382 20,100 3,000 Climbing Boston Center
01:22PM 42.3081 -71.9214 257° West 328 377 22,600 1,860 Climbing Boston Center
01:23PM 42.2856 -72.0433 256° West 331 381 24,000 660 Climbing Boston Center
01:24PM 42.2608 -72.1689 255° West 338 389 24,000  Level Boston Center
01:25PM 42.2386 -72.2947 257° West 343 395 24,000  Level Boston Center
01:26PM 42.2172 -72.4189 257° West 342 394 24,000  Level Boston Center
01:27PM 42.2172 -72.5414 270° West 332 382 24,000  Level Boston Center
01:28PM 42.2175 -72.6661 270° West 330 380 24,000  Level Boston Center
01:29PM 42.2161 -72.7908 269° West 330 380 24,000  Level Boston Center
01:30PM 42.2156 -72.9167 270° West 332 382 24,000  Level Boston Center
01:31PM 42.2142 -73.0428 269° West 334 384 24,000  Level Boston Center
01:32PM 42.2128 -73.1675 269° West 330 380 24,000  Level Boston Center
01:33PM 42.2106 -73.3194 269° West 335 386 24,000  Level Boston Center
01:34PM 42.2086 -73.4369 269° West 338 389 24,000  Level Boston Center
01:35PM 42.2081 -73.5628 270° West 337 388 24,000  Level Boston Center
01:36PM 42.2050 -73.6906 268° West 341 392 24,000  Level Boston Center
01:37PM 42.2031 -73.8275 269° West 339 390 24,000  Level Boston Center
01:38PM 42.2006 -73.9569 269° West 344 396 24,000  Level Boston Center
01:39PM 42.1983 -74.0867 269° West 346 398 24,000  Level Boston Center
01:40PM 42.1956 -74.2181 268° West 350 403 24,000  Level Boston Center
01:41PM 42.1931 -74.3461 269° West 344 396 24,000  Level Boston Center
01:42PM 42.1658 -74.4925 256° West 363 418 24,000 -660 Level Boston Center
01:43PM 42.1253 -74.6147 246° West 360 414 22,700 -1,380 Descending Boston Center
01:44PM 42.0878 -74.7369 248° West 355 409 21,200 -1,380 Descending Boston Center
01:45PM 42.0511 -74.8564 248° West 348 400 20,000 -1,080 Descending Boston Center
01:46PM 42.0106 -74.9817 246° West 342 394 19,000 -540 Descending Boston Center
01:47PM 41.9733 -75.0989 247° West 343 395 19,000  Level Boston Center
01:48PM 41.9122 -75.1825 226° Southwest 376 433 19,000  Level Boston Center
01:49PM 41.8169 -75.2553 210° Southwest 392 451 19,000 -2,280 Level Boston Center
01:50PM 41.7139 -75.3381 211° Southwest 362 417 14,500 -4,740 Descending Boston Center
01:51PM 41.6308 -75.4025 210° Southwest 345 397 9,500 -3,660 Descending Boston Center
01:52PM 41.5675 -75.4544 212° Southwest 280 322 7,100 -1,740 Descending Boston Center
01:53PM 41.5025 -75.5039 210° Southwest 272 313 6,000 -540 Descending Boston Center
01:54PM 41.4275 -75.5011 178° South 270 311 6,000  Level Boston Center
01:55PM 41.3508 -75.4911 174° South 274 315 6,000 -480 Level Boston Center
01:56PM 41.2569 -75.4875 178° South 271 312 5,000 -480 Descending New York Center
01:57PM 41.1822 -75.4794 175° South 271 312 5,000  Level New York Center
01:58PM 41.1117 -75.4747 177° South 271 312 5,000  Level New York Center
01:59PM 41.0431 -75.4700 177° South 271 312 5,000  Level New York Center
02:00PM 40.9664 -75.4644 177° South 271 312 5,000 -480 Level New York Center
02:01PM 40.8942 -75.4431 167° South 271 312 4,100 -1,020 Descending New York Center
02:02PM 40.8261 -75.4247 168° South 271 312 3,000 -600 Descending New York Center
02:03PM 40.7625 -75.4039 166° South 228 262 2,900 -540 Descending New York Center
02:04PM 40.7153 -75.3817 160° South 200 230 2,000 -840 Descending New York Center
02:05PM 40.6819 -75.3847 184° South 174 200 1,300 -360 Descending New York Center
02:06PM 40.6408 -75.3711 166° South 174 200 1,300 4,800 Level New York Center
02:07PM 40.5933 -75.3544 165° South 174 200 11,000 4,800 Climbing New York Center
02:08PM 40.5483 -75.3378 164° South 174 200 11,000  Level New York Center